Time;durP1;ratioP1;P1;durP2;ratioP2;P2;SDS_P1;SDS_P2;PMS_P1;PMS_P2;Temp;Humidity;BMP_temperature;BMP_pressure;BME280_temperature;BME280_humidity;BME280_pressure;Samples;Min_cycle;Max_cycle;Signal;HPM_P1;HPM_P2
2021/12/23 00:00:15;;;;;;;48.97;21.13;;;;;;;-1.21;97.37;100573.09;4973379;28;20113;-88
2021/12/23 00:02:41;;;;;;;40.63;18.25;;;;;;;-1.52;97.19;100543.72;4952787;29;20656;-89
2021/12/23 00:05:10;;;;;;;37.70;17.50;;;;;;;-1.43;97.13;100564.78;4939058;28;20023;-89
2021/12/23 00:07:36;;;;;;;42.58;18.65;;;;;;;-1.58;97.10;100543.53;4969155;28;20102;-89
2021/12/23 00:10:08;;;;;;;40.17;19.17;;;;;;;-1.78;96.74;100497.84;4971539;28;20027;-89
2021/12/23 00:12:39;;;;;;;40.90;19.23;;;;;;;-1.97;96.90;100463.50;4955308;28;20027;-89
2021/12/23 00:15:15;;;;;;;50.45;19.30;;;;;;;-2.78;96.88;100358.13;4971748;28;20027;-89
2021/12/23 00:18:16;;;;;;;41.65;16.08;;;;;;;-2.40;96.42;100403.34;4971836;28;20054;-89
2021/12/23 00:25:44;;;;;;;40.55;19.70;;;;;;;-1.68;96.82;100527.66;4973124;28;20231;-89
2021/12/23 00:28:10;;;;;;;38.50;17.50;;;;;;;-1.82;96.45;100510.78;4956481;28;20098;-89
2021/12/23 00:30:35;;;;;;;39.75;19.15;;;;;;;-1.73;96.67;100526.66;4955401;28;20777;-89
2021/12/23 00:33:02;;;;;;;43.15;19.90;;;;;;;-2.37;97.27;100416.50;4958442;28;20117;-89
2021/12/23 00:35:27;;;;;;;49.95;21.67;;;;;;;-2.96;96.58;100310.84;4959350;29;20043;-89
2021/12/23 00:38:02;;;;;;;40.10;19.45;;;;;;;-2.18;97.30;100468.19;4976693;28;20130;-89
2021/12/23 00:40:31;;;;;;;45.22;18.20;;;;;;;-2.86;96.74;100292.91;4949777;28;20027;-89
2021/12/23 00:42:57;;;;;;;37.33;18.25;;;;;;;-1.68;96.93;100493.75;4972704;28;20042;-88
2021/12/23 00:45:23;;;;;;;42.00;18.35;;;;;;;-2.07;96.65;100422.41;4973560;28;20036;-89
2021/12/23 00:47:48;;;;;;;39.25;16.55;;;;;;;-2.54;96.24;100332.75;4971989;28;20034;-89
2021/12/23 00:50:14;;;;;;;36.70;18.45;;;;;;;-1.97;96.91;100437.44;4952852;28;20031;-89
2021/12/23 00:52:41;;;;;;;37.10;18.48;;;;;;;-1.56;97.39;100494.91;4952766;28;20555;-89
2021/12/23 00:55:12;;;;;;;39.38;17.33;;;;;;;-2.01;96.59;100409.56;4953584;28;20340;-89
2021/12/23 00:57:40;;;;;;;33.40;17.90;;;;;;;-1.67;97.09;100469.44;4956039;28;20113;-89
2021/12/23 01:00:15;;;;;;;34.03;18.48;;;;;;;-1.75;97.17;100455.34;4957298;28;20483;-89
2021/12/23 01:02:44;;;;;;;43.65;18.42;;;;;;;-1.65;97.39;100449.50;4956644;28;20035;-89
2021/12/23 01:05:11;;;;;;;39.92;18.17;;;;;;;-1.48;97.10;100461.16;4955799;28;20050;-89
2021/12/23 01:07:36;;;;;;;38.22;17.50;;;;;;;-1.61;96.68;100435.66;4955343;28;20050;-89
2021/12/23 01:10:04;;;;;;;38.28;18.45;;;;;;;-1.32;96.49;100465.91;4950563;28;20031;-89
2021/12/23 01:12:36;;;;;;;36.53;17.85;;;;;;;-1.48;95.77;100451.63;4973628;28;20050;-89
2021/12/23 01:15:39;;;;;;;42.03;18.45;;;;;;;-1.62;95.93;100415.66;4966770;28;20022;-89
2021/12/23 01:18:14;;;;;;;36.30;17.63;;;;;;;-1.51;96.29;100427.19;4974876;28;20030;-89
2021/12/23 01:20:51;;;;;;;34.60;17.17;;;;;;;-1.26;96.10;100460.81;4975173;28;20113;-90
2021/12/23 01:23:18;;;;;;;38.30;17.77;;;;;;;-1.41;95.51;100442.22;4971799;28;20093;-89
2021/12/23 01:25:43;;;;;;;41.75;19.67;;;;;;;-1.83;95.62;100363.06;4971730;28;20026;-89
2021/12/23 01:28:09;;;;;;;43.53;19.85;;;;;;;-1.59;95.57;100429.66;4940322;28;20398;-89
2021/12/23 01:30:40;;;;;;;34.25;17.92;;;;;;;-1.38;95.86;100458.81;4973724;28;20565;-89
2021/12/23 01:33:07;;;;;;;32.47;17.10;;;;;;;-1.90;95.35;100392.44;4965670;28;20077;-89
2021/12/23 01:35:34;;;;;;;32.17;16.70;;;;;;;-1.60;95.54;100408.75;4955408;28;20042;-89
2021/12/23 01:38:01;;;;;;;39.33;18.40;;;;;;;-1.92;95.40;100365.44;4954996;28;20027;-89
2021/12/23 01:40:28;;;;;;;37.75;18.80;;;;;;;-2.32;95.17;100263.81;4955303;28;20039;-89
2021/12/23 01:42:54;;;;;;;33.33;16.77;;;;;;;-1.88;95.38;100356.88;4955914;28;20097;-89
2021/12/23 01:45:27;;;;;;;38.42;16.63;;;;;;;-1.57;95.07;100408.81;4971016;28;20031;-89
2021/12/23 01:47:53;;;;;;;37.60;18.13;;;;;;;-2.08;95.52;100319.94;4952447;28;20473;-89
2021/12/23 01:50:27;;;;;;;39.55;17.15;;;;;;;-1.39;95.25;100440.53;4971543;28;20037;-89
2021/12/23 01:52:53;;;;;;;;;;;;;;;-1.47;95.63;100442.94;4972059;28;20026;-89
2021/12/23 01:55:18;;;;;;;34.22;16.73;;;;;;;-1.62;94.91;100415.66;4954932;28;19917;-88
2021/12/23 01:57:46;;;;;;;42.53;18.48;;;;;;;-1.59;95.49;100442.69;4954402;28;20023;-89
2021/12/23 02:00:14;;;;;;;34.55;18.08;;;;;;;-1.70;95.89;100406.78;4971254;28;20050;-89
2021/12/23 02:02:41;;;;;;;32.20;14.85;;;;;;;-1.59;95.63;100410.50;4955107;28;20031;-89
2021/12/23 02:05:09;;;;;;;40.45;18.90;;;;;;;-1.81;95.21;100350.91;4971715;28;20533;-89
2021/12/23 02:07:35;;;;;;;35.15;17.88;;;;;;;-1.34;95.25;100404.97;4971776;28;20031;-89
2021/12/23 02:10:00;;;;;;;35.80;17.65;;;;;;;-1.66;94.48;100346.91;4972982;28;20122;-89
2021/12/23 02:12:27;;;;;;;37.45;18.38;;;;;;;-1.45;94.26;100393.44;4955603;28;20029;-89
2021/12/23 02:14:53;;;;;;;36.95;18.27;;;;;;;-1.39;94.69;100389.25;4953262;28;20810;-89
2021/12/23 02:17:21;;;;;;;53.63;18.90;;;;;;;-1.59;94.66;100347.94;4972152;28;20026;-89
2021/12/23 02:19:46;;;;;;;35.45;17.58;;;;;;;-1.50;94.55;100380.28;4954026;28;20121;-89
2021/12/23 02:22:11;;;;;;;36.67;19.42;;;;;;;-1.80;94.65;100305.78;4952249;28;20110;-88
2021/12/23 02:24:38;;;;;;;35.28;15.82;;;;;;;-1.09;95.16;100422.00;4973447;28;20324;-89
2021/12/23 02:27:06;;;;;;;37.67;18.23;;;;;;;-1.97;93.67;100275.84;4954380;28;20121;-89
2021/12/23 02:29:31;;;;;;;38.33;17.45;;;;;;;-1.65;94.40;100301.72;4980094;28;20031;-90
2021/12/23 02:31:58;;;;;;;38.80;15.73;;;;;;;-1.17;95.07;100374.88;4983806;28;20086;-89
2021/12/23 02:34:24;;;;;;;36.67;18.23;;;;;;;-1.11;94.84;100364.56;4971582;28;20516;-89
2021/12/23 02:36:55;;;;;;;43.17;17.55;;;;;;;-1.12;94.69;100365.41;4983776;28;20117;-89
2021/12/23 02:39:21;;;;;;;35.45;16.00;;;;;;;-1.20;94.64;100345.25;4971902;28;20038;-89
2021/12/23 02:41:48;;;;;;;35.33;17.17;;;;;;;-1.05;94.16;100377.72;4955039;28;20089;-89
2021/12/23 02:44:15;;;;;;;35.10;16.73;;;;;;;-1.05;94.22;100372.50;4966843;28;20034;-89
2021/12/23 02:46:41;;;;;;;35.58;15.75;;;;;;;-1.18;93.77;100352.25;4971623;28;20073;-89
2021/12/23 02:49:07;;;;;;;34.35;16.08;;;;;;;-1.37;93.92;100311.00;4974772;28;20493;-89
2021/12/23 02:51:32;;;;;;;37.78;17.27;;;;;;;-1.14;93.81;100364.50;4960186;28;20399;-89
2021/12/23 02:54:00;;;;;;;39.17;16.63;;;;;;;-1.39;93.81;100325.75;4962544;28;20085;-89
2021/12/23 02:56:25;;;;;;;32.53;15.85;;;;;;;-1.27;93.66;100340.75;4965331;28;20033;-89
2021/12/23 02:58:51;;;;;;;35.30;16.05;;;;;;;-1.25;93.76;100326.88;4957512;28;20406;-89
2021/12/23 03:01:18;;;;;;;29.10;15.57;;;;;;;-1.42;92.52;100313.50;4958036;28;20031;-89
2021/12/23 03:03:44;;;;;;;34.15;15.43;;;;;;;-1.15;93.29;100361.88;4958671;28;20023;-89
2021/12/23 03:06:11;;;;;;;34.53;15.55;;;;;;;-1.48;92.80;100309.91;4958604;28;20027;-89
2021/12/23 03:08:42;;;;;;;27.52;14.88;;;;;;;-1.21;93.13;100351.31;4975486;28;20055;-89
2021/12/23 03:11:10;;;;;;;33.47;15.05;;;;;;;-1.29;93.76;100358.09;4950231;28;20022;-89
2021/12/23 03:13:37;;;;;;;31.40;15.85;;;;;;;-1.35;93.22;100361.47;4956084;28;20031;-89
2021/12/23 03:16:04;;;;;;;31.40;16.13;;;;;;;-1.27;93.88;100362.53;4957169;28;20057;-89
2021/12/23 03:18:29;;;;;;;37.10;16.17;;;;;;;-1.47;93.82;100337.75;4972938;28;20371;-89
2021/12/23 03:20:56;;;;;;;36.08;16.83;;;;;;;-1.43;93.99;100339.56;4970911;28;20062;-89
2021/12/23 03:23:22;;;;;;;35.75;16.70;;;;;;;-1.51;93.79;100312.44;4958926;28;20026;-89
2021/12/23 03:25:48;;;;;;;29.95;14.65;;;;;;;-1.36;94.19;100341.44;4975468;28;20065;-89
2021/12/23 03:28:13;;;;;;;26.05;13.27;;;;;;;-1.36;94.08;100337.13;4974712;28;20050;-89
2021/12/23 03:30:39;;;;;;;35.72;16.67;;;;;;;-1.33;93.87;100334.56;4956690;28;20022;-89
2021/12/23 03:33:04;;;;;;;31.45;15.18;;;;;;;-1.25;93.69;100326.03;4951561;28;20019;-89
2021/12/23 03:35:30;;;;;;;31.75;15.93;;;;;;;-1.21;93.68;100320.88;4937387;29;20058;-89
2021/12/23 03:37:56;;;;;;;30.02;15.98;;;;;;;-1.29;94.21;100311.13;4964167;28;20023;-89
2021/12/23 03:40:22;;;;;;;30.08;14.98;;;;;;;-1.54;93.76;100289.81;4973502;28;20030;-89
2021/12/23 03:42:48;;;;;;;35.03;17.42;;;;;;;-1.19;93.93;100342.66;4957703;28;20033;-89
2021/12/23 03:45:14;;;;;;;34.08;15.40;;;;;;;-1.23;93.59;100339.94;4976383;28;20027;-89
2021/12/23 03:47:39;;;;;;;32.17;16.92;;;;;;;-1.38;93.45;100315.34;4957015;28;20037;-89
2021/12/23 03:50:06;;;;;;;30.25;14.13;;;;;;;-1.32;94.43;100322.41;4972782;28;20027;-89
2021/12/23 03:52:33;;;;;;;28.30;14.63;;;;;;;-1.57;93.76;100271.50;4973210;28;20077;-89
2021/12/23 03:54:58;;;;;;;33.72;16.85;;;;;;;-1.37;94.08;100313.63;4972665;28;20381;-89
2021/12/23 03:57:24;;;;;;;30.95;15.93;;;;;;;-1.23;93.76;100322.56;4972891;28;20085;-89
2021/12/23 03:59:49;;;;;;;33.20;15.63;;;;;;;-1.39;93.97;100297.06;4972818;28;20438;-90
2021/12/23 04:02:15;;;;;;;35.85;15.38;;;;;;;-1.48;93.83;100268.16;4974177;28;20066;-89
2021/12/23 04:04:41;;;;;;;29.70;13.68;;;;;;;-1.28;93.71;100303.34;4954890;28;20023;-89
2021/12/23 04:07:06;;;;;;;38.40;16.58;;;;;;;-1.98;93.18;100209.84;4973304;28;20038;-89
2021/12/23 04:09:32;;;;;;;35.97;15.45;;;;;;;-1.37;93.38;100297.97;4955341;28;20136;-90
2021/12/23 04:11:58;;;;;;;32.85;15.43;;;;;;;-1.47;93.67;100286.44;4975860;28;20110;-89
2021/12/23 04:14:23;;;;;;;32.10;15.20;;;;;;;-1.56;93.28;100260.22;4985541;28;20496;-90
2021/12/23 04:16:49;;;;;;;30.25;15.43;;;;;;;-1.42;93.72;100268.31;4967796;28;20034;-90
2021/12/23 04:19:15;;;;;;;33.38;16.33;;;;;;;-1.52;93.72;100246.41;4973196;28;20026;-89
2021/12/23 04:21:41;;;;;;;33.28;16.88;;;;;;;-1.55;93.92;100235.03;4973284;28;20103;-89
2021/12/23 04:24:08;;;;;;;42.67;15.30;;;;;;;-1.34;93.46;100269.31;4966235;28;20516;-89
2021/12/23 04:26:35;;;;;;;39.08;16.08;;;;;;;-1.37;93.12;100274.50;4953641;29;20081;-89
2021/12/23 04:29:01;;;;;;;39.85;17.58;;;;;;;-2.06;93.17;100161.88;4968584;28;20378;-89
2021/12/23 04:31:26;;;;;;;29.55;16.08;;;;;;;-1.63;93.59;100236.59;4972290;28;20130;-89
2021/12/23 04:33:53;;;;;;;40.83;16.90;;;;;;;-2.26;93.08;100159.75;4969588;28;20038;-89
2021/12/23 04:36:20;;;;;;;31.40;16.27;;;;;;;-1.55;93.56;100245.44;4963161;28;20031;-89
2021/12/23 04:38:47;;;;;;;37.40;16.15;;;;;;;-1.52;93.43;100267.25;4966261;28;20031;-89
2021/12/23 04:41:14;;;;;;;30.30;16.17;;;;;;;-1.45;94.27;100269.09;4974020;28;20327;-89
2021/12/23 04:43:40;;;;;;;34.20;15.88;;;;;;;-1.50;94.05;100249.03;4971868;28;20363;-89
2021/12/23 04:46:06;;;;;;;26.90;12.98;;;;;;;-1.55;94.57;100261.97;4949657;28;20118;-89
2021/12/23 04:48:32;;;;;;;34.70;15.27;;;;;;;-1.62;93.94;100246.19;4968928;28;20065;-89
2021/12/23 04:51:00;;;;;;;25.73;14.48;;;;;;;-1.50;94.56;100264.69;4956476;28;20093;-90
2021/12/23 04:53:26;;;;;;;31.63;14.57;;;;;;;-1.39;94.32;100274.47;4952269;28;20149;-89
2021/12/23 04:55:52;;;;;;;31.77;15.18;;;;;;;-1.60;94.20;100247.09;4970092;28;20422;-89
2021/12/23 04:58:17;;;;;;;39.78;16.23;;;;;;;-1.99;93.88;100166.38;4965921;28;20030;-90
2021/12/23 05:00:49;;;;;;;35.17;16.55;;;;;;;-1.95;94.33;100149.97;4944204;28;20038;-89
2021/12/23 05:03:19;;;;;;;30.15;14.65;;;;;;;-1.43;93.87;100230.00;4973051;28;20023;-90
2021/12/23 05:05:45;;;;;;;34.63;15.90;;;;;;;-1.37;93.89;100245.78;4972805;28;20022;-90
2021/12/23 05:08:11;;;;;;;31.95;16.20;;;;;;;-1.63;94.16;100184.47;4974599;28;20050;-89
2021/12/23 05:10:37;;;;;;;33.53;15.40;;;;;;;-2.13;93.91;100089.69;4955703;28;20458;-89
2021/12/23 05:13:03;;;;;;;36.55;17.55;;;;;;;-1.26;94.26;100240.75;4956841;28;20026;-89
2021/12/23 05:15:29;;;;;;;33.53;16.48;;;;;;;-1.40;94.65;100206.63;4948974;28;20138;-89
2021/12/23 05:17:55;;;;;;;33.92;15.48;;;;;;;-1.22;94.33;100237.34;4970492;28;20054;-89
2021/12/23 05:20:20;;;;;;;35.58;16.25;;;;;;;-1.32;94.48;100223.28;4971073;28;20034;-89
2021/12/23 05:22:50;;;;;;;27.38;15.60;;;;;;;-1.25;94.83;100214.69;4961199;28;20027;-89
2021/12/23 05:25:16;;;;;;;30.88;15.25;;;;;;;-1.14;94.80;100228.81;4937139;29;20578;-89
2021/12/23 05:27:43;;;;;;;31.73;15.70;;;;;;;-1.55;94.56;100151.56;4959677;28;20066;-89
2021/12/23 05:30:12;;;;;;;31.73;16.60;;;;;;;-1.33;94.91;100187.59;4979031;28;20018;-89
2021/12/23 05:32:38;;;;;;;33.10;14.48;;;;;;;-1.04;95.27;100240.28;4990050;28;20034;-89
2021/12/23 05:35:04;;;;;;;30.60;14.98;;;;;;;-1.15;94.89;100227.03;4946044;28;20023;-89
2021/12/23 05:37:30;;;;;;;34.83;14.90;;;;;;;-1.09;95.19;100232.38;4955015;28;20095;-89
2021/12/23 05:39:55;;;;;;;29.92;15.52;;;;;;;-1.66;95.14;100138.34;4955379;28;20486;-89
2021/12/23 05:42:20;;;;;;;30.85;16.15;;;;;;;-1.10;94.82;100240.19;4968893;28;20150;-89
2021/12/23 05:44:46;;;;;;;27.15;15.10;;;;;;;-1.28;95.02;100238.13;4970791;28;20034;-89
2021/12/23 05:47:12;;;;;;;28.45;16.08;;;;;;;-1.24;95.42;100216.47;4948054;28;20495;-89
2021/12/23 05:49:37;;;;;;;34.58;16.40;;;;;;;-1.18;94.12;100237.44;4981514;28;20045;-89
2021/12/23 05:52:04;;;;;;;31.25;15.80;;;;;;;-1.19;94.78;100222.63;4987577;28;20057;-89
2021/12/23 05:54:29;;;;;;;30.80;17.13;;;;;;;-1.37;94.73;100172.75;4972222;28;20121;-89
2021/12/23 05:57:01;;;;;;;25.38;15.02;;;;;;;-1.27;94.39;100169.44;4945655;28;20110;-89
2021/12/23 05:59:28;;;;;;;43.38;17.35;;;;;;;-1.35;94.13;100156.25;4939916;28;20073;-89
2021/12/23 06:01:53;;;;;;;46.40;21.92;;;;;;;-1.15;94.64;100174.00;4965653;28;20026;-90
2021/12/23 06:04:18;;;;;;;37.33;19.48;;;;;;;-1.26;94.85;100176.41;4938663;28;20035;-90
2021/12/23 06:06:45;;;;;;;39.15;20.15;;;;;;;-1.27;94.21;100195.53;4951771;29;20031;-89
2021/12/23 06:09:10;;;;;;;37.67;17.63;;;;;;;-1.19;94.59;100212.19;4951636;29;20067;-89
2021/12/23 06:11:36;;;;;;;38.50;19.48;;;;;;;-1.29;94.04;100189.41;4969228;28;20122;-89
2021/12/23 06:14:01;;;;;;;41.50;18.58;;;;;;;-1.21;93.74;100174.75;4971367;28;20031;-89
2021/12/23 06:16:27;;;;;;;35.58;17.30;;;;;;;-1.12;93.30;100201.00;4954648;28;20387;-89
2021/12/23 06:18:52;;;;;;;39.50;19.92;;;;;;;-1.19;93.34;100172.19;4971062;28;20536;-89
2021/12/23 06:21:18;;;;;;;30.25;16.17;;;;;;;-1.17;93.42;100191.34;4968678;28;20077;-90
2021/12/23 06:23:43;;;;;;;31.38;16.02;;;;;;;-1.23;94.33;100189.50;4938793;29;20023;-89
2021/12/23 06:26:08;;;;;;;37.30;16.88;;;;;;;-1.13;94.08;100182.69;4939388;29;20058;-89
2021/12/23 06:28:34;;;;;;;34.30;17.33;;;;;;;-1.22;94.50;100161.69;4949592;28;20022;-90
2021/12/23 06:30:59;;;;;;;37.00;17.20;;;;;;;-1.12;94.65;100194.91;4973321;28;20034;-89
2021/12/23 06:33:25;;;;;;;25.65;15.02;;;;;;;-1.14;94.37;100183.56;4958041;28;20026;-89
2021/12/23 06:35:50;;;;;;;33.50;16.35;;;;;;;-1.69;94.41;100085.25;4957744;28;20085;-89
2021/12/23 06:38:16;;;;;;;36.38;17.73;;;;;;;-1.15;94.70;100193.13;4973175;28;20027;-90
2021/12/23 06:40:41;;;;;;;37.28;17.95;;;;;;;-1.24;94.99;100159.06;4958153;28;20038;-89
2021/12/23 06:43:07;;;;;;;34.97;18.90;;;;;;;-1.08;95.14;100176.72;4975677;28;20086;-90
2021/12/23 06:45:33;;;;;;;51.08;26.20;;;;;;;-1.00;94.73;100180.31;4958325;28;20122;-89
2021/12/23 06:47:58;;;;;;;71.10;31.27;;;;;;;-1.00;95.05;100163.78;4973123;28;20031;-89
2021/12/23 06:50:24;;;;;;;56.47;24.77;;;;;;;-0.91;95.09;100158.72;4958928;28;20027;-89
2021/12/23 06:52:50;;;;;;;117.03;44.33;;;;;;;-1.44;95.26;100085.69;4985839;28;20033;-89
2021/12/23 06:55:19;;;;;;;93.75;37.03;;;;;;;-0.77;95.29;100165.88;4975737;28;20031;-90
2021/12/23 06:57:45;;;;;;;122.40;44.83;;;;;;;-0.73;95.30;100175.53;4975823;28;20031;-89
2021/12/23 07:00:15;;;;;;;148.88;42.00;;;;;;;-0.86;94.90;100165.78;4974738;28;20019;-89
2021/12/23 07:02:42;;;;;;;62.22;28.70;;;;;;;-0.76;95.26;100177.22;4974154;28;20597;-89
2021/12/23 07:05:09;;;;;;;60.97;25.42;;;;;;;-0.90;95.20;100156.13;4955288;28;20411;-89
2021/12/23 07:07:51;;;;;;;50.83;26.60;;;;;;;-0.82;94.77;100169.28;4962174;28;20111;-89
2021/12/23 07:10:18;;;;;;;49.40;24.30;;;;;;;-0.79;94.91;100188.47;4951772;28;20026;-89
2021/12/23 07:12:44;;;;;;;38.40;18.50;;;;;;;-0.74;95.01;100189.44;4939332;29;20028;-89
2021/12/23 07:15:09;;;;;;;34.92;16.08;;;;;;;-0.97;95.24;100140.34;4955662;29;20035;-89
2021/12/23 07:17:37;;;;;;;36.13;16.38;;;;;;;-1.30;95.34;100065.03;4942736;28;20032;-89
2021/12/23 07:20:04;;;;;;;35.80;17.17;;;;;;;-0.75;95.67;100150.25;4958828;28;20019;-89
2021/12/23 07:22:29;;;;;;;38.88;15.73;;;;;;;-0.69;95.32;100174.72;4973600;28;20035;-89
2021/12/23 07:24:54;;;;;;;34.20;16.25;;;;;;;-0.58;95.85;100170.53;4952886;28;20043;-89
2021/12/23 07:27:21;;;;;;;31.58;15.45;;;;;;;-0.69;96.46;100132.06;4973687;28;20029;-89
2021/12/23 07:29:49;;;;;;;38.15;17.42;;;;;;;-0.70;96.56;100119.84;4956372;28;20031;-89
2021/12/23 07:32:14;;;;;;;34.90;15.13;;;;;;;-0.34;96.94;100168.25;4974067;28;20042;-89
2021/12/23 07:34:42;;;;;;;33.60;16.35;;;;;;;-0.28;96.61;100163.09;4973956;28;20031;-89
2021/12/23 07:37:09;;;;;;;32.90;14.98;;;;;;;-0.02;97.40;100166.88;4958761;28;20026;-89
2021/12/23 07:39:36;;;;;;;43.58;15.98;;;;;;;0.05;97.11;100169.59;4973374;28;20546;-89
2021/12/23 07:42:03;;;;;;;35.13;15.57;;;;;;;0.04;96.83;100147.78;4975000;28;20031;-89
2021/12/23 07:44:29;;;;;;;37.97;16.92;;;;;;;0.23;97.49;100162.81;4973520;28;20022;-89
2021/12/23 07:46:54;;;;;;;40.88;14.45;;;;;;;-0.16;96.05;100082.22;4958126;28;20099;-89
2021/12/23 07:49:20;;;;;;;33.45;15.93;;;;;;;-0.28;96.32;100076.84;4973952;28;20026;-89
2021/12/23 07:51:46;;;;;;;35.75;15.77;;;;;;;0.19;96.25;100147.09;4975004;28;20034;-89
2021/12/23 07:54:11;;;;;;;36.85;16.88;;;;;;;0.39;95.77;100187.41;4973067;28;20122;-89
2021/12/23 07:56:37;;;;;;;36.88;20.10;;;;;;;0.32;95.69;100180.34;4974445;28;20700;-89
2021/12/23 07:59:03;;;;;;;40.03;21.13;;;;;;;0.46;95.81;100189.25;4961218;28;20039;-89
2021/12/23 08:01:28;;;;;;;40.80;18.77;;;;;;;0.40;95.40;100183.91;4956524;28;20391;-89
2021/12/23 08:03:55;;;;;;;43.85;19.02;;;;;;;0.47;96.15;100180.50;4957114;28;20062;-89
2021/12/23 08:06:20;;;;;;;38.17;18.15;;;;;;;0.38;95.83;100152.50;4958485;28;20549;-89
2021/12/23 08:08:46;;;;;;;35.42;17.88;;;;;;;0.52;95.90;100173.59;4965879;28;20043;-89
2021/12/23 08:11:11;;;;;;;37.78;17.88;;;;;;;0.59;94.91;100175.41;4956729;28;20419;-89
2021/12/23 08:13:40;;;;;;;34.35;17.80;;;;;;;0.76;95.98;100189.50;4977108;28;20038;-90
2021/12/23 08:16:06;;;;;;;42.03;17.73;;;;;;;0.75;95.11;100193.91;4958712;28;20034;-89
2021/12/23 08:18:32;;;;;;;41.78;19.45;;;;;;;0.82;94.96;100190.47;4957583;28;20045;-89
2021/12/23 08:20:58;;;;;;;48.22;21.70;;;;;;;0.67;95.18;100164.16;4974752;28;20034;-89
2021/12/23 08:23:26;;;;;;;42.97;20.27;;;;;;;1.01;94.42;100197.59;4971479;28;20455;-89
2021/12/23 08:25:54;;;;;;;43.20;19.08;;;;;;;0.19;94.59;100045.09;4972458;28;20038;-89
2021/12/23 08:28:19;;;;;;;46.35;18.73;;;;;;;0.70;93.58;100158.06;4972881;28;20027;-89
2021/12/23 08:30:45;;;;;;;42.63;18.58;;;;;;;0.03;95.63;100084.16;4972629;28;20026;-89
2021/12/23 08:33:10;;;;;;;39.30;20.25;;;;;;;0.52;97.02;100178.81;4956175;28;20478;-89
2021/12/23 08:35:36;;;;;;;46.20;20.30;;;;;;;0.50;96.58;100129.09;4971500;28;20041;-89
2021/12/23 08:38:03;;;;;;;43.53;18.83;;;;;;;1.22;95.15;100186.41;4955721;28;20027;-89
2021/12/23 08:40:29;;;;;;;46.33;22.95;;;;;;;1.40;95.51;100175.19;4975893;28;20035;-88
2021/12/23 08:42:56;;;;;;;47.20;21.17;;;;;;;1.56;94.52;100166.56;4957187;28;20034;-89
2021/12/23 08:45:23;;;;;;;47.13;21.52;;;;;;;1.52;94.08;100160.41;4970992;28;20031;-89
2021/12/23 08:47:51;;;;;;;49.10;21.63;;;;;;;1.54;92.78;100150.81;4952919;28;20056;-89
2021/12/23 08:50:19;;;;;;;46.10;22.02;;;;;;;1.48;92.75;100119.34;4938833;29;20411;-89
2021/12/23 08:52:45;;;;;;;49.88;23.30;;;;;;;1.32;91.63;100057.22;4969006;28;20078;-89
2021/12/23 08:55:11;;;;;;;50.40;23.02;;;;;;;1.40;91.14;100073.00;4955776;28;20789;-89
2021/12/23 08:57:38;;;;;;;44.65;22.25;;;;;;;1.91;91.47;100154.50;4973508;28;20039;-89
2021/12/23 09:00:07;;;;;;;42.97;21.92;;;;;;;1.97;91.56;100151.88;4956090;28;20019;-89
2021/12/23 09:02:33;;;;;;;47.97;20.88;;;;;;;1.81;91.74;100116.00;4955161;28;20574;-89
2021/12/23 09:04:58;;;;;;;44.58;18.58;;;;;;;1.97;91.86;100108.19;4955553;28;20105;-89
2021/12/23 09:07:24;;;;;;;45.67;21.33;;;;;;;1.58;91.16;100055.63;4955072;28;20844;-89
2021/12/23 09:09:51;;;;;;;46.03;20.63;;;;;;;2.01;91.03;100122.19;4972091;28;20078;-89
2021/12/23 09:12:23;;;;;;;37.70;17.30;;;;;;;1.94;91.22;100134.41;4963903;28;20019;-89
2021/12/23 09:14:50;;;;;;;34.15;16.70;;;;;;;1.98;92.24;100109.94;4954226;28;20113;-89
2021/12/23 09:17:16;;;;;;;40.67;18.05;;;;;;;2.29;91.41;100137.13;4960384;28;20558;-89
2021/12/23 09:19:42;;;;;;;41.53;19.02;;;;;;;2.16;90.81;100099.47;4951791;29;20027;-89
2021/12/23 09:22:09;;;;;;;40.65;18.00;;;;;;;2.33;90.35;100110.91;4953098;29;20031;-89
2021/12/23 09:24:37;;;;;;;38.20;16.63;;;;;;;1.88;91.00;100041.72;4966955;28;20034;-89
2021/12/23 09:27:17;;;;;;;30.73;15.60;;;;;;;2.22;90.94;100099.53;4970554;28;20431;-89
2021/12/23 09:34:55;;;;;;;34.75;13.85;;;;;;;2.52;91.32;100117.91;4973460;28;20041;-88
2021/12/23 09:37:22;;;;;;;38.53;14.20;;;;;;;2.57;90.65;100108.28;4954545;28;20403;-89
2021/12/23 09:39:54;;;;;;;35.97;15.48;;;;;;;1.86;90.86;99986.63;4963915;28;20023;-89
2021/12/23 09:42:24;;;;;;;31.77;13.73;;;;;;;2.07;90.58;99981.44;4952455;29;20067;-89
2021/12/23 09:44:51;;;;;;;35.75;16.55;;;;;;;2.33;90.22;99994.53;4956114;28;20023;-88
2021/12/23 09:47:18;;;;;;;34.35;15.80;;;;;;;3.19;90.02;100110.91;4954048;28;20098;-89
2021/12/23 09:49:45;;;;;;;34.90;13.95;;;;;;;3.53;90.53;100107.31;4972150;28;20042;-89
2021/12/23 09:52:11;;;;;;;37.00;16.70;;;;;;;4.05;88.75;100093.03;4954484;28;20034;-88
2021/12/23 09:54:41;;;;;;;40.90;16.08;;;;;;;4.30;84.82;100096.41;4971580;28;20041;-89
2021/12/23 09:57:07;;;;;;;28.23;14.07;;;;;;;3.98;81.96;100091.34;4975522;28;20030;-89
2021/12/23 09:59:33;;;;;;;29.63;13.55;;;;;;;3.91;82.68;100088.75;4975145;28;20157;-89
2021/12/23 10:01:59;;;;;;;35.83;13.77;;;;;;;3.81;82.56;100056.34;4975001;28;20027;-89
2021/12/23 10:04:25;;;;;;;30.30;13.93;;;;;;;3.89;83.21;100085.22;4958368;28;20031;-89
2021/12/23 10:06:51;;;;;;;28.20;14.82;;;;;;;3.46;83.04;100015.31;4974959;28;20026;-89
2021/12/23 10:09:38;;;;;;;25.67;12.77;;;;;;;3.93;84.00;100098.38;4975743;28;20051;-89
2021/12/23 10:39:45;;;;;;;26.23;11.95;;;;;;;4.21;83.01;100088.59;4978572;28;20027;-89
2021/12/23 10:42:15;;;;;;;25.00;11.85;;;;;;;3.80;82.91;100011.63;4974379;28;20157;-89
2021/12/23 10:44:52;;;;;;;25.58;11.52;;;;;;;4.25;82.23;100056.06;4980730;28;20085;-89
2021/12/23 10:47:45;;;;;;;23.30;11.15;;;;;;;4.37;82.09;100061.25;4975637;28;20030;-89
2021/12/23 10:50:16;;;;;;;24.92;11.43;;;;;;;4.50;81.37;100067.34;4959258;28;20035;-89
2021/12/23 10:53:03;;;;;;;20.08;10.65;;;;;;;4.70;81.50;100058.38;4975474;28;20497;-89
2021/12/23 10:58:16;;;;;;;22.20;11.05;;;;;;;4.75;80.41;100027.59;4977141;28;20114;-89
2021/12/23 11:00:45;;;;;;;23.15;10.93;;;;;;;4.85;80.20;100052.97;4973949;28;20527;-89
2021/12/23 11:03:27;;;;;;;25.10;11.35;;;;;;;4.76;80.19;100026.69;4959480;28;20105;-89
2021/12/23 11:06:08;;;;;;;25.33;11.00;;;;;;;4.87;79.74;100038.03;4959861;28;20022;-89
2021/12/23 11:11:56;;;;;;;22.45;10.45;;;;;;;4.91;79.12;100000.19;4975414;28;20042;-89
2021/12/23 11:29:01;;;;;;;21.50;10.32;;;;;;;5.70;76.17;99978.16;4975130;28;20069;-90
2021/12/23 11:41:59;;;;;;;25.58;11.70;;;;;;;6.24;74.95;99941.25;4974414;28;20336;-89
2021/12/23 11:44:25;;;;;;;28.55;13.52;;;;;;;6.35;74.55;99923.47;4964109;28;20023;-89
2021/12/23 11:46:55;;;;;;;21.45;10.50;;;;;;;6.52;74.38;99921.41;4954429;29;20034;-89
2021/12/23 11:49:22;;;;;;;22.02;11.55;;;;;;;6.72;73.65;99899.03;4971686;28;20032;-89
2021/12/23 11:54:22;;;;;;;18.35;8.63;;;;;;;7.09;71.23;99884.16;4974713;28;20110;-90
2021/12/23 11:56:55;;;;;;;15.43;8.80;;;;;;;7.34;69.12;99904.81;4973115;28;20038;-89
2021/12/23 11:59:22;;;;;;;12.18;6.88;;;;;;;7.20;68.13;99859.25;4958020;28;20483;-89
2021/12/23 12:01:52;;;;;;;15.27;7.20;;;;;;;7.30;67.06;99850.19;4977040;28;20038;-89
2021/12/23 12:04:22;;;;;;;16.38;7.88;;;;;;;7.41;67.44;99860.56;4973522;28;20039;-89
2021/12/23 12:06:50;;;;;;;14.57;7.45;;;;;;;7.45;67.79;99873.69;4973430;28;20023;-89
2021/12/23 12:09:16;;;;;;;12.90;7.25;;;;;;;7.48;68.18;99870.97;4955834;28;20054;-89
2021/12/23 12:11:49;;;;;;;15.75;7.03;;;;;;;7.36;68.63;99844.78;4973038;28;20035;-90
2021/12/23 12:14:34;;;;;;;15.25;7.32;;;;;;;7.53;68.96;99874.38;4973845;28;20026;-89
2021/12/23 12:17:33;;;;;;;14.57;6.65;;;;;;;7.57;69.52;99873.41;4972358;28;20027;-90
2021/12/23 12:20:23;;;;;;;13.32;7.45;;;;;;;7.61;69.36;99872.41;4964929;28;20034;-91
2021/12/23 12:23:11;;;;;;;12.73;7.47;;;;;;;7.68;69.72;99860.78;4972779;28;20090;-89
2021/12/23 12:25:44;;;;;;;11.23;6.32;;;;;;;7.74;69.06;99862.44;4972037;28;20034;-89